Jackson, Idaho
Current Conditions -  °F | °C
As of 2:53 AM on Thursday 23 Oct 2014 (Local Time) from KBYI Reporting Station
Broken Clouds Broken Clouds  
Wind Chill: 56°   Ceiling: 11000
Heat Index: 56°   Visibility: 10mi
Dew Point: 27°   Wind: 9mph
Humidity: 33%   Direction: 210°SSW
Pressure: 30.07"   Gusts: NA
Location:  42.6416°N, 113.637°W
Report Text: KBYI 230853Z AUTO 21008KT 10SM BKN110 13/M03 A3007 RMK AO2 SLP160 T01331028 53000
Loading
Personal Weather Stations






























Interactive Weather Map
Tropical Storm Tracking
New forecast layout! Learn more

10-Day Weather Forecast

Advertisements
Track Severe Weather on mobile